sensor_id;sensor_type;location;lat;lon;timestamp;P1;durP1;ratioP1;P2;durP2;ratioP2
2211;SDS011;48849;48.758;9.158;2024-01-10T00:00:20;17.73;;;13.45;;
2211;SDS011;48849;48.758;9.158;2024-01-10T00:02:48;19.13;;;13.75;;
2211;SDS011;48849;48.758;9.158;2024-01-10T00:05:15;17.15;;;12.73;;
2211;SDS011;48849;48.758;9.158;2024-01-10T00:07:41;19.40;;;12.73;;
2211;SDS011;48849;48.758;9.158;2024-01-10T00:10:08;17.08;;;11.50;;
2211;SDS011;48849;48.758;9.158;2024-01-10T00:12:36;18.63;;;12.48;;
2211;SDS011;48849;48.758;9.158;2024-01-10T00:15:03;19.42;;;12.32;;
2211;SDS011;48849;48.758;9.158;2024-01-10T00:17:30;18.55;;;12.30;;
2211;SDS011;48849;48.758;9.158;2024-01-10T00:19:59;18.77;;;12.38;;
2211;SDS011;48849;48.758;9.158;2024-01-10T00:22:25;20.35;;;13.45;;
2211;SDS011;48849;48.758;9.158;2024-01-10T00:24:52;20.60;;;13.70;;
2211;SDS011;48849;48.758;9.158;2024-01-10T00:27:19;24.70;;;16.88;;
2211;SDS011;48849;48.758;9.158;2024-01-10T00:29:45;20.25;;;14.05;;
2211;SDS011;48849;48.758;9.158;2024-01-10T00:32:12;20.17;;;14.65;;
2211;SDS011;48849;48.758;9.158;2024-01-10T00:34:39;21.25;;;13.25;;
2211;SDS011;48849;48.758;9.158;2024-01-10T00:37:07;17.70;;;12.52;;
2211;SDS011;48849;48.758;9.158;2024-01-10T00:39:33;17.50;;;12.27;;
2211;SDS011;48849;48.758;9.158;2024-01-10T00:42:00;16.52;;;12.00;;
2211;SDS011;48849;48.758;9.158;2024-01-10T00:44:27;17.08;;;12.10;;
2211;SDS011;48849;48.758;9.158;2024-01-10T00:46:54;16.27;;;11.60;;
2211;SDS011;48849;48.758;9.158;2024-01-10T00:49:20;15.15;;;10.90;;
2211;SDS011;48849;48.758;9.158;2024-01-10T00:51:47;19.42;;;12.65;;
2211;SDS011;48849;48.758;9.158;2024-01-10T00:54:15;21.52;;;12.73;;
2211;SDS011;48849;48.758;9.158;2024-01-10T00:56:42;19.35;;;12.40;;
2211;SDS011;48849;48.758;9.158;2024-01-10T00:59:08;18.73;;;12.27;;
2211;SDS011;48849;48.758;9.158;2024-01-10T01:01:35;15.93;;;11.27;;
2211;SDS011;48849;48.758;9.158;2024-01-10T01:04:01;15.57;;;11.63;;
2211;SDS011;48849;48.758;9.158;2024-01-10T01:06:28;19.85;;;13.38;;
2211;SDS011;48849;48.758;9.158;2024-01-10T01:08:55;20.42;;;11.90;;
2211;SDS011;48849;48.758;9.158;2024-01-10T01:11:23;20.05;;;12.52;;
2211;SDS011;48849;48.758;9.158;2024-01-10T01:13:49;17.17;;;11.60;;
2211;SDS011;48849;48.758;9.158;2024-01-10T01:16:16;21.42;;;12.13;;
2211;SDS011;48849;48.758;9.158;2024-01-10T01:18:43;17.13;;;11.88;;
2211;SDS011;48849;48.758;9.158;2024-01-10T01:21:10;18.20;;;11.75;;
2211;SDS011;48849;48.758;9.158;2024-01-10T01:23:37;17.70;;;11.52;;
2211;SDS011;48849;48.758;9.158;2024-01-10T01:26:04;16.35;;;11.60;;
2211;SDS011;48849;48.758;9.158;2024-01-10T01:28:32;17.90;;;11.98;;
2211;SDS011;48849;48.758;9.158;2024-01-10T01:30:59;16.20;;;11.07;;
2211;SDS011;48849;48.758;9.158;2024-01-10T01:33:25;19.63;;;12.63;;
2211;SDS011;48849;48.758;9.158;2024-01-10T01:35:52;17.95;;;11.60;;
2211;SDS011;48849;48.758;9.158;2024-01-10T01:38:19;18.95;;;12.45;;
2211;SDS011;48849;48.758;9.158;2024-01-10T01:40:46;17.38;;;11.82;;
2211;SDS011;48849;48.758;9.158;2024-01-10T01:43:19;17.55;;;11.82;;
2211;SDS011;48849;48.758;9.158;2024-01-10T01:45:49;14.90;;;11.05;;
2211;SDS011;48849;48.758;9.158;2024-01-10T01:48:18;19.80;;;11.98;;
2211;SDS011;48849;48.758;9.158;2024-01-10T01:50:46;19.88;;;11.65;;
2211;SDS011;48849;48.758;9.158;2024-01-10T01:53:15;19.52;;;11.63;;
2211;SDS011;48849;48.758;9.158;2024-01-10T01:55:42;17.30;;;11.90;;
2211;SDS011;48849;48.758;9.158;2024-01-10T01:58:10;16.08;;;11.57;;
2211;SDS011;48849;48.758;9.158;2024-01-10T02:00:37;18.85;;;12.20;;
2211;SDS011;48849;48.758;9.158;2024-01-10T02:03:06;15.52;;;11.27;;
2211;SDS011;48849;48.758;9.158;2024-01-10T02:05:34;19.95;;;12.30;;
2211;SDS011;48849;48.758;9.158;2024-01-10T02:08:01;14.18;;;11.07;;
2211;SDS011;48849;48.758;9.158;2024-01-10T02:10:28;17.10;;;11.60;;
2211;SDS011;48849;48.758;9.158;2024-01-10T02:12:54;17.92;;;10.95;;
2211;SDS011;48849;48.758;9.158;2024-01-10T02:15:21;18.52;;;11.60;;
2211;SDS011;48849;48.758;9.158;2024-01-10T02:17:48;18.00;;;11.48;;
2211;SDS011;48849;48.758;9.158;2024-01-10T02:20:16;19.40;;;11.68;;
2211;SDS011;48849;48.758;9.158;2024-01-10T02:22:43;16.63;;;12.02;;
2211;SDS011;48849;48.758;9.158;2024-01-10T02:25:11;18.98;;;11.68;;
2211;SDS011;48849;48.758;9.158;2024-01-10T02:27:39;17.80;;;11.75;;
2211;SDS011;48849;48.758;9.158;2024-01-10T02:30:07;15.70;;;11.32;;
2211;SDS011;48849;48.758;9.158;2024-01-10T02:32:35;21.52;;;11.07;;
2211;SDS011;48849;48.758;9.158;2024-01-10T02:35:02;16.52;;;11.45;;
2211;SDS011;48849;48.758;9.158;2024-01-10T02:37:30;17.38;;;11.95;;
2211;SDS011;48849;48.758;9.158;2024-01-10T02:39:56;16.75;;;11.35;;
2211;SDS011;48849;48.758;9.158;2024-01-10T02:42:24;16.20;;;11.65;;
2211;SDS011;48849;48.758;9.158;2024-01-10T02:44:52;16.75;;;11.20;;
2211;SDS011;48849;48.758;9.158;2024-01-10T02:47:18;17.23;;;11.55;;
2211;SDS011;48849;48.758;9.158;2024-01-10T02:49:45;16.70;;;11.20;;
2211;SDS011;48849;48.758;9.158;2024-01-10T02:52:12;20.13;;;12.38;;
2211;SDS011;48849;48.758;9.158;2024-01-10T02:54:38;19.77;;;12.05;;
2211;SDS011;48849;48.758;9.158;2024-01-10T02:57:05;16.95;;;11.10;;
2211;SDS011;48849;48.758;9.158;2024-01-10T02:59:34;21.30;;;11.65;;
2211;SDS011;48849;48.758;9.158;2024-01-10T03:02:00;15.73;;;10.27;;
2211;SDS011;48849;48.758;9.158;2024-01-10T03:04:27;16.25;;;11.73;;
2211;SDS011;48849;48.758;9.158;2024-01-10T03:06:53;17.92;;;12.18;;
2211;SDS011;48849;48.758;9.158;2024-01-10T03:09:20;17.10;;;11.15;;
2211;SDS011;48849;48.758;9.158;2024-01-10T03:11:48;20.52;;;12.63;;
2211;SDS011;48849;48.758;9.158;2024-01-10T03:14:14;20.60;;;12.85;;
2211;SDS011;48849;48.758;9.158;2024-01-10T03:16:42;18.17;;;11.88;;
2211;SDS011;48849;48.758;9.158;2024-01-10T03:19:10;16.55;;;11.77;;
2211;SDS011;48849;48.758;9.158;2024-01-10T03:21:37;18.75;;;12.27;;
2211;SDS011;48849;48.758;9.158;2024-01-10T03:24:04;20.27;;;12.10;;
2211;SDS011;48849;48.758;9.158;2024-01-10T03:26:31;18.00;;;12.43;;
2211;SDS011;48849;48.758;9.158;2024-01-10T03:28:58;19.15;;;12.60;;
2211;SDS011;48849;48.758;9.158;2024-01-10T03:31:26;19.13;;;12.30;;
2211;SDS011;48849;48.758;9.158;2024-01-10T03:33:55;17.88;;;12.00;;
2211;SDS011;48849;48.758;9.158;2024-01-10T03:36:22;18.90;;;12.80;;
2211;SDS011;48849;48.758;9.158;2024-01-10T03:38:48;18.35;;;12.30;;
2211;SDS011;48849;48.758;9.158;2024-01-10T03:41:15;18.60;;;12.52;;
2211;SDS011;48849;48.758;9.158;2024-01-10T03:43:43;23.08;;;12.43;;
2211;SDS011;48849;48.758;9.158;2024-01-10T03:46:10;18.48;;;11.73;;
2211;SDS011;48849;48.758;9.158;2024-01-10T03:48:37;21.10;;;12.65;;
2211;SDS011;48849;48.758;9.158;2024-01-10T03:51:13;20.17;;;11.25;;
2211;SDS011;48849;48.758;9.158;2024-01-10T03:53:40;18.13;;;13.27;;
2211;SDS011;48849;48.758;9.158;2024-01-10T03:56:07;19.45;;;13.15;;
2211;SDS011;48849;48.758;9.158;2024-01-10T03:58:34;18.40;;;11.95;;
2211;SDS011;48849;48.758;9.158;2024-01-10T04:01:03;19.55;;;13.13;;
2211;SDS011;48849;48.758;9.158;2024-01-10T04:03:31;21.75;;;13.30;;
2211;SDS011;48849;48.758;9.158;2024-01-10T04:05:58;21.90;;;13.77;;
2211;SDS011;48849;48.758;9.158;2024-01-10T04:08:26;22.85;;;12.98;;
2211;SDS011;48849;48.758;9.158;2024-01-10T04:10:53;20.02;;;13.20;;
2211;SDS011;48849;48.758;9.158;2024-01-10T04:13:19;17.75;;;12.45;;
2211;SDS011;48849;48.758;9.158;2024-01-10T04:15:46;22.00;;;13.30;;
2211;SDS011;48849;48.758;9.158;2024-01-10T04:18:13;23.33;;;13.13;;
2211;SDS011;48849;48.758;9.158;2024-01-10T04:20:40;22.95;;;14.02;;
2211;SDS011;48849;48.758;9.158;2024-01-10T04:23:09;23.15;;;14.38;;
2211;SDS011;48849;48.758;9.158;2024-01-10T04:25:37;17.17;;;12.27;;
2211;SDS011;48849;48.758;9.158;2024-01-10T04:28:04;19.38;;;12.30;;
2211;SDS011;48849;48.758;9.158;2024-01-10T04:30:43;19.95;;;13.75;;
2211;SDS011;48849;48.758;9.158;2024-01-10T04:33:10;18.63;;;12.30;;
2211;SDS011;48849;48.758;9.158;2024-01-10T04:35:37;21.33;;;12.73;;
2211;SDS011;48849;48.758;9.158;2024-01-10T04:38:04;22.50;;;13.55;;
2211;SDS011;48849;48.758;9.158;2024-01-10T04:40:31;22.08;;;13.80;;
2211;SDS011;48849;48.758;9.158;2024-01-10T04:42:59;19.92;;;14.73;;
2211;SDS011;48849;48.758;9.158;2024-01-10T04:45:25;17.42;;;12.57;;
2211;SDS011;48849;48.758;9.158;2024-01-10T04:47:52;23.20;;;13.15;;
2211;SDS011;48849;48.758;9.158;2024-01-10T04:50:19;20.15;;;12.95;;
2211;SDS011;48849;48.758;9.158;2024-01-10T04:52:45;20.55;;;13.30;;
2211;SDS011;48849;48.758;9.158;2024-01-10T04:55:12;21.35;;;13.88;;
2211;SDS011;48849;48.758;9.158;2024-01-10T04:57:39;21.30;;;14.30;;
2211;SDS011;48849;48.758;9.158;2024-01-10T05:00:07;20.10;;;12.90;;
2211;SDS011;48849;48.758;9.158;2024-01-10T05:02:35;22.60;;;14.05;;
2211;SDS011;48849;48.758;9.158;2024-01-10T05:05:02;23.08;;;13.75;;
2211;SDS011;48849;48.758;9.158;2024-01-10T05:07:29;21.20;;;12.85;;
2211;SDS011;48849;48.758;9.158;2024-01-10T05:09:55;22.70;;;13.45;;
2211;SDS011;48849;48.758;9.158;2024-01-10T05:12:22;21.00;;;13.45;;
2211;SDS011;48849;48.758;9.158;2024-01-10T05:14:49;21.20;;;13.27;;
2211;SDS011;48849;48.758;9.158;2024-01-10T05:17:18;22.02;;;14.20;;
2211;SDS011;48849;48.758;9.158;2024-01-10T05:19:45;22.45;;;15.43;;
2211;SDS011;48849;48.758;9.158;2024-01-10T05:22:12;22.58;;;14.05;;
2211;SDS011;48849;48.758;9.158;2024-01-10T05:24:38;20.17;;;13.40;;
2211;SDS011;48849;48.758;9.158;2024-01-10T05:27:05;19.33;;;13.15;;
2211;SDS011;48849;48.758;9.158;2024-01-10T05:29:32;23.17;;;14.27;;
2211;SDS011;48849;48.758;9.158;2024-01-10T05:31:59;21.92;;;14.60;;
2211;SDS011;48849;48.758;9.158;2024-01-10T05:34:27;22.67;;;14.98;;
2211;SDS011;48849;48.758;9.158;2024-01-10T05:36:53;19.60;;;13.23;;
2211;SDS011;48849;48.758;9.158;2024-01-10T05:39:20;23.10;;;13.90;;
2211;SDS011;48849;48.758;9.158;2024-01-10T05:41:47;22.58;;;13.55;;
2211;SDS011;48849;48.758;9.158;2024-01-10T05:44:15;26.48;;;14.57;;
2211;SDS011;48849;48.758;9.158;2024-01-10T05:46:42;19.67;;;14.10;;
2211;SDS011;48849;48.758;9.158;2024-01-10T05:49:09;21.38;;;14.68;;
2211;SDS011;48849;48.758;9.158;2024-01-10T05:51:38;23.45;;;15.77;;
2211;SDS011;48849;48.758;9.158;2024-01-10T05:54:05;20.33;;;13.43;;
2211;SDS011;48849;48.758;9.158;2024-01-10T05:56:32;22.58;;;15.07;;
2211;SDS011;48849;48.758;9.158;2024-01-10T05:58:59;21.73;;;14.20;;
2211;SDS011;48849;48.758;9.158;2024-01-10T06:01:26;20.92;;;13.80;;
2211;SDS011;48849;48.758;9.158;2024-01-10T06:03:53;22.48;;;14.43;;
2211;SDS011;48849;48.758;9.158;2024-01-10T06:06:21;21.48;;;15.00;;
2211;SDS011;48849;48.758;9.158;2024-01-10T06:08:49;20.63;;;13.98;;
2211;SDS011;48849;48.758;9.158;2024-01-10T06:11:17;22.52;;;14.00;;
2211;SDS011;48849;48.758;9.158;2024-01-10T06:13:44;20.77;;;13.77;;
2211;SDS011;48849;48.758;9.158;2024-01-10T06:16:10;24.27;;;14.48;;
2211;SDS011;48849;48.758;9.158;2024-01-10T06:18:38;21.80;;;15.18;;
2211;SDS011;48849;48.758;9.158;2024-01-10T06:21:05;22.88;;;13.95;;
2211;SDS011;48849;48.758;9.158;2024-01-10T06:23:31;25.38;;;15.13;;
2211;SDS011;48849;48.758;9.158;2024-01-10T06:26:01;21.13;;;14.40;;
2211;SDS011;48849;48.758;9.158;2024-01-10T06:28:27;24.45;;;14.27;;
2211;SDS011;48849;48.758;9.158;2024-01-10T06:30:54;20.70;;;14.15;;
2211;SDS011;48849;48.758;9.158;2024-01-10T06:33:21;22.73;;;14.25;;
2211;SDS011;48849;48.758;9.158;2024-01-10T06:35:47;24.77;;;14.57;;
2211;SDS011;48849;48.758;9.158;2024-01-10T06:38:14;19.25;;;14.30;;
2211;SDS011;48849;48.758;9.158;2024-01-10T06:40:41;21.88;;;14.20;;
2211;SDS011;48849;48.758;9.158;2024-01-10T06:43:11;19.92;;;13.50;;
2211;SDS011;48849;48.758;9.158;2024-01-10T06:45:37;21.85;;;13.55;;
2211;SDS011;48849;48.758;9.158;2024-01-10T06:48:05;20.48;;;14.40;;
2211;SDS011;48849;48.758;9.158;2024-01-10T06:50:32;25.67;;;14.23;;
2211;SDS011;48849;48.758;9.158;2024-01-10T06:52:59;22.85;;;15.45;;
2211;SDS011;48849;48.758;9.158;2024-01-10T06:55:26;20.73;;;14.55;;
2211;SDS011;48849;48.758;9.158;2024-01-10T06:57:54;22.73;;;15.25;;
2211;SDS011;48849;48.758;9.158;2024-01-10T07:00:22;22.52;;;14.82;;
2211;SDS011;48849;48.758;9.158;2024-01-10T07:02:49;23.80;;;14.90;;
2211;SDS011;48849;48.758;9.158;2024-01-10T07:05:16;24.35;;;16.45;;
2211;SDS011;48849;48.758;9.158;2024-01-10T07:07:44;21.40;;;13.80;;
2211;SDS011;48849;48.758;9.158;2024-01-10T07:10:12;27.15;;;14.75;;
2211;SDS011;48849;48.758;9.158;2024-01-10T07:12:38;22.10;;;14.85;;
2211;SDS011;48849;48.758;9.158;2024-01-10T07:15:06;24.70;;;15.23;;
2211;SDS011;48849;48.758;9.158;2024-01-10T07:17:35;21.08;;;14.70;;
2211;SDS011;48849;48.758;9.158;2024-01-10T07:20:02;21.85;;;14.20;;
2211;SDS011;48849;48.758;9.158;2024-01-10T07:22:30;27.67;;;15.73;;
2211;SDS011;48849;48.758;9.158;2024-01-10T07:24:57;22.10;;;14.20;;
2211;SDS011;48849;48.758;9.158;2024-01-10T07:27:24;25.92;;;15.68;;
2211;SDS011;48849;48.758;9.158;2024-01-10T07:29:50;22.70;;;15.45;;
2211;SDS011;48849;48.758;9.158;2024-01-10T07:32:17;26.23;;;16.23;;
2211;SDS011;48849;48.758;9.158;2024-01-10T07:34:46;26.45;;;15.85;;
2211;SDS011;48849;48.758;9.158;2024-01-10T07:37:13;29.15;;;15.20;;
2211;SDS011;48849;48.758;9.158;2024-01-10T07:39:41;25.40;;;15.25;;
2211;SDS011;48849;48.758;9.158;2024-01-10T07:42:08;22.55;;;14.73;;
2211;SDS011;48849;48.758;9.158;2024-01-10T07:44:35;20.05;;;14.13;;
2211;SDS011;48849;48.758;9.158;2024-01-10T07:47:02;22.20;;;14.75;;
2211;SDS011;48849;48.758;9.158;2024-01-10T07:49:29;21.85;;;14.35;;
2211;SDS011;48849;48.758;9.158;2024-01-10T07:51:58;27.35;;;15.85;;
2211;SDS011;48849;48.758;9.158;2024-01-10T07:54:25;26.08;;;16.25;;
2211;SDS011;48849;48.758;9.158;2024-01-10T07:56:52;22.75;;;15.27;;
2211;SDS011;48849;48.758;9.158;2024-01-10T07:59:19;24.15;;;14.27;;
2211;SDS011;48849;48.758;9.158;2024-01-10T08:01:54;26.90;;;16.58;;
2211;SDS011;48849;48.758;9.158;2024-01-10T08:04:23;25.63;;;15.85;;
2211;SDS011;48849;48.758;9.158;2024-01-10T08:06:50;20.73;;;16.05;;
2211;SDS011;48849;48.758;9.158;2024-01-10T08:09:18;26.73;;;16.25;;
2211;SDS011;48849;48.758;9.158;2024-01-10T08:11:45;26.10;;;15.85;;
2211;SDS011;48849;48.758;9.158;2024-01-10T08:14:13;24.05;;;16.27;;
2211;SDS011;48849;48.758;9.158;2024-01-10T08:16:40;22.75;;;15.85;;
2211;SDS011;48849;48.758;9.158;2024-01-10T08:19:09;24.02;;;16.20;;
2211;SDS011;48849;48.758;9.158;2024-01-10T08:21:36;22.67;;;15.57;;
2211;SDS011;48849;48.758;9.158;2024-01-10T08:24:03;25.73;;;15.93;;
2211;SDS011;48849;48.758;9.158;2024-01-10T08:26:32;27.30;;;17.83;;
2211;SDS011;48849;48.758;9.158;2024-01-10T08:28:58;27.25;;;16.67;;
2211;SDS011;48849;48.758;9.158;2024-01-10T08:31:25;30.98;;;16.65;;
2211;SDS011;48849;48.758;9.158;2024-01-10T08:33:52;27.08;;;17.77;;
2211;SDS011;48849;48.758;9.158;2024-01-10T08:36:19;28.42;;;19.10;;
2211;SDS011;48849;48.758;9.158;2024-01-10T08:38:46;32.50;;;19.05;;
2211;SDS011;48849;48.758;9.158;2024-01-10T08:41:13;42.10;;;22.60;;
2211;SDS011;48849;48.758;9.158;2024-01-10T08:43:41;36.45;;;18.50;;
2211;SDS011;48849;48.758;9.158;2024-01-10T08:46:08;30.80;;;17.85;;
2211;SDS011;48849;48.758;9.158;2024-01-10T08:48:35;26.48;;;17.20;;
2211;SDS011;48849;48.758;9.158;2024-01-10T08:51:02;25.60;;;16.15;;
2211;SDS011;48849;48.758;9.158;2024-01-10T08:53:28;27.15;;;16.92;;
2211;SDS011;48849;48.758;9.158;2024-01-10T08:55:55;29.58;;;16.85;;
2211;SDS011;48849;48.758;9.158;2024-01-10T08:58:22;24.63;;;16.55;;
2211;SDS011;48849;48.758;9.158;2024-01-10T09:00:50;27.75;;;15.90;;
2211;SDS011;48849;48.758;9.158;2024-01-10T09:03:17;27.25;;;17.80;;
2211;SDS011;48849;48.758;9.158;2024-01-10T09:05:43;24.92;;;16.92;;
2211;SDS011;48849;48.758;9.158;2024-01-10T09:08:10;28.27;;;17.35;;
2211;SDS011;48849;48.758;9.158;2024-01-10T09:10:37;27.90;;;16.92;;
2211;SDS011;48849;48.758;9.158;2024-01-10T09:13:04;28.98;;;17.58;;
2211;SDS011;48849;48.758;9.158;2024-01-10T09:15:30;27.65;;;18.15;;
2211;SDS011;48849;48.758;9.158;2024-01-10T09:17:58;23.45;;;17.08;;
2211;SDS011;48849;48.758;9.158;2024-01-10T09:20:25;29.52;;;19.38;;
2211;SDS011;48849;48.758;9.158;2024-01-10T09:22:52;26.90;;;17.92;;
2211;SDS011;48849;48.758;9.158;2024-01-10T09:25:19;26.98;;;18.10;;
2211;SDS011;48849;48.758;9.158;2024-01-10T09:27:46;33.30;;;19.98;;
2211;SDS011;48849;48.758;9.158;2024-01-10T09:30:13;30.23;;;20.77;;
2211;SDS011;48849;48.758;9.158;2024-01-10T09:32:43;26.90;;;17.92;;
2211;SDS011;48849;48.758;9.158;2024-01-10T09:35:11;27.80;;;18.15;;
2211;SDS011;48849;48.758;9.158;2024-01-10T09:37:38;30.02;;;18.92;;
2211;SDS011;48849;48.758;9.158;2024-01-10T09:40:05;31.40;;;18.70;;
2211;SDS011;48849;48.758;9.158;2024-01-10T09:42:33;31.67;;;19.15;;
2211;SDS011;48849;48.758;9.158;2024-01-10T09:45:03;30.27;;;19.38;;
2211;SDS011;48849;48.758;9.158;2024-01-10T09:47:31;32.28;;;20.00;;
2211;SDS011;48849;48.758;9.158;2024-01-10T09:49:58;28.58;;;19.52;;
2211;SDS011;48849;48.758;9.158;2024-01-10T09:52:28;31.13;;;21.30;;
2211;SDS011;48849;48.758;9.158;2024-01-10T09:55:00;31.75;;;18.98;;
2211;SDS011;48849;48.758;9.158;2024-01-10T09:57:27;30.42;;;19.08;;
2211;SDS011;48849;48.758;9.158;2024-01-10T09:59:55;29.67;;;19.63;;
2211;SDS011;48849;48.758;9.158;2024-01-10T10:02:23;29.48;;;19.08;;
2211;SDS011;48849;48.758;9.158;2024-01-10T10:04:52;32.35;;;19.52;;
2211;SDS011;48849;48.758;9.158;2024-01-10T10:07:21;29.15;;;19.83;;
2211;SDS011;48849;48.758;9.158;2024-01-10T10:09:49;27.55;;;18.63;;
2211;SDS011;48849;48.758;9.158;2024-01-10T10:12:18;29.98;;;20.40;;
2211;SDS011;48849;48.758;9.158;2024-01-10T10:14:44;29.00;;;19.65;;
2211;SDS011;48849;48.758;9.158;2024-01-10T10:17:14;27.13;;;20.23;;
2211;SDS011;48849;48.758;9.158;2024-01-10T10:19:41;27.70;;;18.90;;
2211;SDS011;48849;48.758;9.158;2024-01-10T10:22:09;30.55;;;20.70;;
2211;SDS011;48849;48.758;9.158;2024-01-10T10:24:36;32.00;;;19.58;;
2211;SDS011;48849;48.758;9.158;2024-01-10T10:27:08;31.23;;;21.08;;
2211;SDS011;48849;48.758;9.158;2024-01-10T10:29:36;29.50;;;20.65;;
2211;SDS011;48849;48.758;9.158;2024-01-10T10:32:04;31.98;;;22.23;;
2211;SDS011;48849;48.758;9.158;2024-01-10T10:34:33;28.75;;;20.38;;
2211;SDS011;48849;48.758;9.158;2024-01-10T10:37:00;38.45;;;23.15;;
2211;SDS011;48849;48.758;9.158;2024-01-10T10:39:27;31.40;;;21.95;;
2211;SDS011;48849;48.758;9.158;2024-01-10T10:41:53;37.78;;;21.67;;
2211;SDS011;48849;48.758;9.158;2024-01-10T10:44:24;31.65;;;21.13;;
2211;SDS011;48849;48.758;9.158;2024-01-10T10:46:52;35.25;;;23.13;;
2211;SDS011;48849;48.758;9.158;2024-01-10T10:49:22;27.58;;;19.90;;
2211;SDS011;48849;48.758;9.158;2024-01-10T10:51:55;32.25;;;22.05;;
2211;SDS011;48849;48.758;9.158;2024-01-10T10:54:25;34.03;;;22.20;;
2211;SDS011;48849;48.758;9.158;2024-01-10T10:56:57;39.95;;;22.98;;
2211;SDS011;48849;48.758;9.158;2024-01-10T10:59:26;32.97;;;23.42;;
2211;SDS011;48849;48.758;9.158;2024-01-10T11:01:54;34.05;;;22.40;;
2211;SDS011;48849;48.758;9.158;2024-01-10T11:04:22;34.08;;;22.05;;
2211;SDS011;48849;48.758;9.158;2024-01-10T11:06:49;28.85;;;20.85;;
2211;SDS011;48849;48.758;9.158;2024-01-10T11:09:16;33.30;;;21.58;;
2211;SDS011;48849;48.758;9.158;2024-01-10T11:11:50;34.75;;;22.33;;
2211;SDS011;48849;48.758;9.158;2024-01-10T11:14:31;30.55;;;20.60;;
2211;SDS011;48849;48.758;9.158;2024-01-10T11:17:24;29.13;;;21.08;;
2211;SDS011;48849;48.758;9.158;2024-01-10T11:20:14;31.35;;;20.50;;
2211;SDS011;48849;48.758;9.158;2024-01-10T11:22:53;30.33;;;20.75;;
2211;SDS011;48849;48.758;9.158;2024-01-10T11:25:36;34.17;;;22.58;;
2211;SDS011;48849;48.758;9.158;2024-01-10T11:28:04;32.97;;;23.00;;
2211;SDS011;48849;48.758;9.158;2024-01-10T11:30:36;31.42;;;21.75;;
2211;SDS011;48849;48.758;9.158;2024-01-10T11:33:17;31.85;;;22.92;;
2211;SDS011;48849;48.758;9.158;2024-01-10T11:38:37;32.63;;;21.73;;
2211;SDS011;48849;48.758;9.158;2024-01-10T11:41:05;29.30;;;22.65;;
2211;SDS011;48849;48.758;9.158;2024-01-10T11:43:33;31.73;;;22.17;;
2211;SDS011;48849;48.758;9.158;2024-01-10T11:46:02;35.05;;;21.23;;
2211;SDS011;48849;48.758;9.158;2024-01-10T11:48:30;35.35;;;21.83;;
2211;SDS011;48849;48.758;9.158;2024-01-10T11:50:58;34.80;;;22.25;;
2211;SDS011;48849;48.758;9.158;2024-01-10T11:53:39;38.33;;;24.65;;
2211;SDS011;48849;48.758;9.158;2024-01-10T11:56:10;33.60;;;23.38;;
2211;SDS011;48849;48.758;9.158;2024-01-10T11:58:52;35.35;;;24.88;;
2211;SDS011;48849;48.758;9.158;2024-01-10T12:01:21;31.17;;;22.48;;
2211;SDS011;48849;48.758;9.158;2024-01-10T12:03:50;34.50;;;23.38;;
2211;SDS011;48849;48.758;9.158;2024-01-10T12:06:18;33.92;;;23.70;;
2211;SDS011;48849;48.758;9.158;2024-01-10T12:08:47;35.05;;;22.25;;
2211;SDS011;48849;48.758;9.158;2024-01-10T12:11:14;35.45;;;23.52;;
2211;SDS011;48849;48.758;9.158;2024-01-10T12:13:41;32.35;;;24.10;;
2211;SDS011;48849;48.758;9.158;2024-01-10T12:16:08;34.75;;;23.15;;
2211;SDS011;48849;48.758;9.158;2024-01-10T12:18:37;38.42;;;24.05;;
2211;SDS011;48849;48.758;9.158;2024-01-10T12:21:04;30.92;;;22.98;;
2211;SDS011;48849;48.758;9.158;2024-01-10T12:23:31;39.40;;;25.50;;
2211;SDS011;48849;48.758;9.158;2024-01-10T12:26:01;33.13;;;22.33;;
2211;SDS011;48849;48.758;9.158;2024-01-10T12:28:28;32.15;;;23.42;;
2211;SDS011;48849;48.758;9.158;2024-01-10T12:30:54;37.75;;;23.88;;
2211;SDS011;48849;48.758;9.158;2024-01-10T12:33:21;31.50;;;22.92;;
2211;SDS011;48849;48.758;9.158;2024-01-10T12:36:03;38.38;;;24.67;;
2211;SDS011;48849;48.758;9.158;2024-01-10T12:38:31;36.83;;;24.48;;
2211;SDS011;48849;48.758;9.158;2024-01-10T12:40:59;35.58;;;23.55;;
2211;SDS011;48849;48.758;9.158;2024-01-10T12:43:26;37.80;;;25.05;;
2211;SDS011;48849;48.758;9.158;2024-01-10T12:46:02;33.78;;;24.05;;
2211;SDS011;48849;48.758;9.158;2024-01-10T12:48:30;34.08;;;24.20;;
2211;SDS011;48849;48.758;9.158;2024-01-10T12:50:58;35.33;;;25.27;;
2211;SDS011;48849;48.758;9.158;2024-01-10T12:53:28;35.17;;;24.40;;
2211;SDS011;48849;48.758;9.158;2024-01-10T12:55:55;34.30;;;24.17;;
2211;SDS011;48849;48.758;9.158;2024-01-10T12:58:23;36.20;;;24.95;;
2211;SDS011;48849;48.758;9.158;2024-01-10T13:00:50;37.75;;;25.65;;
2211;SDS011;48849;48.758;9.158;2024-01-10T13:03:17;32.10;;;22.67;;
2211;SDS011;48849;48.758;9.158;2024-01-10T13:05:44;34.20;;;23.98;;
2211;SDS011;48849;48.758;9.158;2024-01-10T13:08:10;34.47;;;23.23;;
2211;SDS011;48849;48.758;9.158;2024-01-10T13:10:39;34.00;;;24.30;;
2211;SDS011;48849;48.758;9.158;2024-01-10T13:13:05;32.85;;;22.85;;
2211;SDS011;48849;48.758;9.158;2024-01-10T13:15:32;33.80;;;23.70;;
2211;SDS011;48849;48.758;9.158;2024-01-10T13:17:59;37.65;;;25.27;;
2211;SDS011;48849;48.758;9.158;2024-01-10T13:20:25;31.88;;;22.65;;
2211;SDS011;48849;48.758;9.158;2024-01-10T13:22:52;35.53;;;24.20;;
2211;SDS011;48849;48.758;9.158;2024-01-10T13:25:19;34.00;;;23.40;;
2211;SDS011;48849;48.758;9.158;2024-01-10T13:27:49;34.60;;;23.27;;
2211;SDS011;48849;48.758;9.158;2024-01-10T13:30:18;34.38;;;23.75;;
2211;SDS011;48849;48.758;9.158;2024-01-10T13:32:45;33.05;;;22.88;;
2211;SDS011;48849;48.758;9.158;2024-01-10T13:35:12;34.88;;;24.63;;
2211;SDS011;48849;48.758;9.158;2024-01-10T13:37:41;36.47;;;23.70;;
2211;SDS011;48849;48.758;9.158;2024-01-10T13:40:08;34.88;;;23.65;;
2211;SDS011;48849;48.758;9.158;2024-01-10T13:42:37;33.50;;;23.25;;
2211;SDS011;48849;48.758;9.158;2024-01-10T13:45:06;32.25;;;21.88;;
2211;SDS011;48849;48.758;9.158;2024-01-10T13:47:36;32.60;;;21.70;;
2211;SDS011;48849;48.758;9.158;2024-01-10T13:50:03;33.80;;;22.40;;
2211;SDS011;48849;48.758;9.158;2024-01-10T13:52:31;29.75;;;20.90;;
2211;SDS011;48849;48.758;9.158;2024-01-10T13:54:57;38.67;;;21.60;;
2211;SDS011;48849;48.758;9.158;2024-01-10T13:57:24;35.83;;;22.48;;
2211;SDS011;48849;48.758;9.158;2024-01-10T13:59:51;34.60;;;22.60;;
2211;SDS011;48849;48.758;9.158;2024-01-10T14:02:21;32.80;;;21.00;;
2211;SDS011;48849;48.758;9.158;2024-01-10T14:04:48;33.15;;;21.88;;
2211;SDS011;48849;48.758;9.158;2024-01-10T14:07:15;30.10;;;21.33;;
2211;SDS011;48849;48.758;9.158;2024-01-10T14:09:43;31.38;;;20.35;;
2211;SDS011;48849;48.758;9.158;2024-01-10T14:12:10;29.35;;;21.52;;
2211;SDS011;48849;48.758;9.158;2024-01-10T14:14:37;33.72;;;22.42;;
2211;SDS011;48849;48.758;9.158;2024-01-10T14:17:04;35.15;;;22.50;;
2211;SDS011;48849;48.758;9.158;2024-01-10T14:19:32;36.63;;;22.92;;
2211;SDS011;48849;48.758;9.158;2024-01-10T14:21:59;35.60;;;23.40;;
2211;SDS011;48849;48.758;9.158;2024-01-10T14:24:26;32.97;;;22.05;;
2211;SDS011;48849;48.758;9.158;2024-01-10T14:26:53;32.05;;;22.85;;
2211;SDS011;48849;48.758;9.158;2024-01-10T14:29:19;33.28;;;22.13;;
2211;SDS011;48849;48.758;9.158;2024-01-10T14:31:47;34.50;;;23.88;;
2211;SDS011;48849;48.758;9.158;2024-01-10T14:34:14;31.23;;;22.88;;
2211;SDS011;48849;48.758;9.158;2024-01-10T14:36:42;33.45;;;22.05;;
2211;SDS011;48849;48.758;9.158;2024-01-10T14:39:08;33.15;;;22.58;;